Time;durP1;ratioP1;P1;durP2;ratioP2;P2;SDS_P1;SDS_P2;PMS_P1;PMS_P2;Temp;Humidity;BMP_temperature;BMP_pressure;BME280_temperature;BME280_humidity;BME280_pressure;Samples;Min_cycle;Max_cycle;Signal;HPM_P1;HPM_P2
2021/07/11 00:00:10;;;;;;;1999.90;999.90;;;;;;;17.92;82.79;98305.22;5050837;28;20355;-64
2021/07/11 00:02:37;;;;;;;1999.90;999.90;;;;;;;17.64;83.67;98308.34;5050808;28;20365;-64
2021/07/11 00:05:05;;;;;;;1999.90;999.90;;;;;;;17.65;84.56;98297.94;5049478;28;20045;-64
2021/07/11 00:07:31;;;;;;;1999.90;999.90;;;;;;;17.57;85.23;98294.22;5049962;28;20048;-64
2021/07/11 00:09:58;;;;;;;1999.90;999.90;;;;;;;17.94;83.98;98294.44;5051179;28;20053;-64
2021/07/11 00:12:26;;;;;;;1999.90;999.90;;;;;;;17.60;84.95;98291.47;5050432;28;20431;-64
2021/07/11 00:14:54;;;;;;;1999.90;999.90;;;;;;;17.80;84.30;98294.19;5050132;28;20065;-64
2021/07/11 00:17:22;;;;;;;1999.90;999.90;;;;;;;17.71;84.65;98293.66;5050038;28;20061;-64
2021/07/11 00:19:48;;;;;;;1999.90;999.90;;;;;;;17.53;85.96;98294.16;5050875;28;20080;-64
2021/07/11 00:22:15;;;;;;;1999.90;999.90;;;;;;;17.88;84.36;98289.50;5049549;28;20038;-64
2021/07/11 00:24:43;;;;;;;1999.90;999.90;;;;;;;18.30;81.95;98288.56;5050636;28;20380;-64
2021/07/11 00:27:11;;;;;;;1999.90;999.90;;;;;;;18.00;83.21;98286.53;5049651;28;20045;-64
2021/07/11 00:29:37;;;;;;;1999.90;999.90;;;;;;;17.76;84.32;98282.16;5049802;28;20339;-63
2021/07/11 00:32:04;;;;;;;1999.90;999.90;;;;;;;17.91;83.70;98284.00;5049984;28;20049;-63
2021/07/11 00:34:31;;;;;;;1999.90;999.90;;;;;;;17.62;85.22;98282.72;5050214;28;20458;-64
2021/07/11 00:36:57;;;;;;;1999.90;999.90;;;;;;;18.08;83.20;98282.66;5045376;28;20037;-64
2021/07/11 00:39:24;;;;;;;1999.90;999.90;;;;;;;17.83;84.07;98287.84;5050452;28;20045;-64
2021/07/11 00:41:50;;;;;;;1999.90;999.90;;;;;;;17.49;85.87;98281.31;5050002;28;20037;-64
2021/07/11 00:44:17;;;;;;;1999.90;999.90;;;;;;;18.08;83.84;98281.84;5049487;28;20091;-64
2021/07/11 00:46:45;;;;;;;1999.90;999.90;;;;;;;18.10;83.21;98285.91;5049867;28;20099;-64
2021/07/11 00:49:14;;;;;;;1999.90;999.90;;;;;;;17.53;86.16;98285.75;5050113;28;20041;-64
2021/07/11 00:51:42;;;;;;;1999.90;999.90;;;;;;;17.67;85.66;98282.41;5049240;28;20041;-64
2021/07/11 00:54:08;;;;;;;1999.90;999.90;;;;;;;18.00;84.48;98280.94;5049781;28;20076;-64
2021/07/11 00:56:35;;;;;;;1999.90;999.90;;;;;;;18.14;83.62;98283.13;5050205;28;20049;-64
2021/07/11 00:59:02;;;;;;;1999.90;999.90;;;;;;;18.03;84.18;98273.78;5049341;28;20050;-64
2021/07/11 01:01:58;;;;;;;1999.90;999.90;;;;;;;17.76;85.15;98282.16;5049206;28;20037;-64
2021/07/11 01:04:47;;;;;;;1999.90;999.90;;;;;;;17.51;86.59;98278.97;5041368;28;20068;-63
2021/07/11 01:07:17;;;;;;;1999.90;999.90;;;;;;;17.57;86.33;98286.63;5049697;28;20040;-64
2021/07/11 01:09:47;;;;;;;1999.90;999.90;;;;;;;18.14;84.29;98280.34;5047499;28;20053;-64
2021/07/11 01:12:35;;;;;;;1999.90;999.90;;;;;;;17.81;85.54;98281.03;5049364;28;20076;-64
2021/07/11 01:15:02;;;;;;;1999.90;999.90;;;;;;;17.91;84.11;98278.41;5050150;28;20222;-64
2021/07/11 01:17:32;;;;;;;1999.90;999.90;;;;;;;17.40;86.35;98284.34;5048473;28;20053;-64
2021/07/11 01:20:17;;;;;;;1999.90;999.90;;;;;;;17.93;84.83;98286.44;5039102;28;20110;-64
2021/07/11 01:22:50;;;;;;;1999.90;999.90;;;;;;;18.22;83.39;98282.06;5049284;28;20049;-64
2021/07/11 01:25:42;;;;;;;1999.90;999.90;;;;;;;18.15;83.02;98286.72;5048890;28;20049;-65
2021/07/11 01:28:20;;;;;;;1999.90;999.90;;;;;;;18.65;81.57;98285.41;5044297;28;20114;-64
2021/07/11 01:30:50;;;;;;;1999.90;999.90;;;;;;;18.17;83.14;98285.16;5049025;28;20045;-64
2021/07/11 01:33:19;;;;;;;1999.90;999.90;;;;;;;18.47;81.93;98289.97;5048815;28;20052;-64
2021/07/11 01:35:46;;;;;;;1999.90;999.90;;;;;;;18.09;83.47;98284.28;5048338;28;20048;-64
2021/07/11 01:38:14;;;;;;;1999.90;999.90;;;;;;;18.37;82.50;98276.63;5048501;28;20052;-64
2021/07/11 01:40:43;;;;;;;1999.90;999.90;;;;;;;18.54;81.94;98286.47;5049852;28;20045;-64
2021/07/11 01:43:11;;;;;;;1999.90;999.90;;;;;;;18.71;80.56;98285.06;5048162;28;20048;-64
2021/07/11 01:45:38;;;;;;;1999.90;999.90;;;;;;;18.68;81.01;98283.81;5048514;28;20438;-64
2021/07/11 01:48:05;;;;;;;1999.90;999.90;;;;;;;18.52;81.61;98284.06;5049465;28;20516;-64
2021/07/11 01:50:33;;;;;;;1999.90;999.90;;;;;;;18.67;80.98;98285.03;5049049;28;20072;-64
2021/07/11 01:53:00;;;;;;;1999.90;999.90;;;;;;;18.99;79.30;98290.22;5048876;28;20530;-64
2021/07/11 01:55:28;;;;;;;1999.90;999.90;;;;;;;19.12;79.02;98288.75;5049011;28;20057;-64
2021/07/11 01:57:55;;;;;;;1999.90;999.90;;;;;;;19.34;77.96;98289.78;5049697;28;20052;-64
2021/07/11 02:00:22;;;;;;;1999.90;999.90;;;;;;;18.35;81.43;98296.63;5047147;28;20098;-64
2021/07/11 02:02:49;;;;;;;1999.90;999.90;;;;;;;19.00;79.31;98295.44;5042830;28;20064;-64
2021/07/11 02:05:17;;;;;;;1999.90;999.90;;;;;;;18.41;81.69;98292.28;5048738;28;20346;-64
2021/07/11 02:07:44;;;;;;;1999.90;999.90;;;;;;;18.62;81.06;98289.00;5048574;28;20049;-64
2021/07/11 02:10:14;;;;;;;1999.90;999.90;;;;;;;18.81;80.30;98292.78;5050061;28;20084;-64
2021/07/11 02:12:47;;;;;;;1999.90;999.90;;;;;;;18.34;82.17;98294.19;5049254;28;20071;-64
2021/07/11 02:15:14;;;;;;;1999.90;999.90;;;;;;;17.76;84.40;98293.34;5043357;28;20045;-64
2021/07/11 02:17:44;;;;;;;1999.90;999.90;;;;;;;18.09;83.81;98298.25;5048788;28;20049;-64
2021/07/11 02:20:11;;;;;;;1999.90;999.90;;;;;;;18.29;83.14;98298.94;5048479;28;20080;-64
2021/07/11 02:22:44;;;;;;;1999.90;999.90;;;;;;;18.27;82.92;98298.50;5047846;28;20044;-64
2021/07/11 02:25:14;;;;;;;1999.90;999.90;;;;;;;18.04;84.01;98300.56;5048538;28;20114;-64
2021/07/11 02:27:45;;;;;;;1999.90;999.90;;;;;;;17.85;85.17;98304.25;5048233;28;20041;-64
2021/07/11 02:30:23;;;;;;;1999.90;999.90;;;;;;;18.18;84.06;98303.59;5047816;28;20084;-64
2021/07/11 02:32:52;;;;;;;1999.90;999.90;;;;;;;18.32;83.07;98302.19;5046855;28;20049;-64
2021/07/11 02:35:38;;;;;;;1999.90;999.90;;;;;;;18.64;81.85;98308.22;5049455;28;20110;-64
2021/07/11 02:38:05;;;;;;;1999.90;999.90;;;;;;;18.54;82.10;98315.28;5047648;28;20045;-64
2021/07/11 02:40:34;;;;;;;1999.90;999.90;;;;;;;17.71;85.88;98310.41;5047860;28;20086;-64
2021/07/11 02:43:03;;;;;;;1999.90;999.90;;;;;;;17.43;87.45;98315.16;5048738;28;20389;-64
2021/07/11 02:45:32;;;;;;;1999.90;999.90;;;;;;;17.58;87.82;98310.63;5047316;28;20052;-64
2021/07/11 02:48:01;;;;;;;1999.90;999.90;;;;;;;17.27;88.43;98303.31;5047555;28;20131;-64
2021/07/11 02:50:28;;;;;;;1999.90;999.90;;;;;;;17.71;87.60;98307.63;5046648;28;20053;-64
2021/07/11 02:52:56;;;;;;;1999.90;999.90;;;;;;;17.38;89.12;98304.28;5049287;28;20110;-64
2021/07/11 02:55:27;;;;;;;1999.90;999.90;;;;;;;17.49;88.56;98304.50;5047628;28;20057;-64
2021/07/11 02:57:59;;;;;;;1999.90;999.90;;;;;;;17.36;90.12;98303.84;5047852;28;20049;-64
2021/07/11 03:00:26;;;;;;;1999.90;999.90;;;;;;;17.38;89.33;98303.47;5048078;28;20284;-64
2021/07/11 03:02:55;;;;;;;1999.90;999.90;;;;;;;17.41;90.37;98305.53;5046723;28;20045;-64
2021/07/11 03:05:24;;;;;;;1999.90;999.90;;;;;;;17.14;90.81;98299.06;5047773;28;20126;-65
2021/07/11 03:07:51;;;;;;;1999.90;999.90;;;;;;;17.80;88.39;98304.56;5047428;28;20049;-64
2021/07/11 03:10:18;;;;;;;1999.90;999.90;;;;;;;17.33;90.48;98300.97;5047949;28;20045;-64
2021/07/11 03:12:48;;;;;;;1999.90;999.90;;;;;;;18.02;88.21;98312.13;5047459;28;20056;-64
2021/07/11 03:15:14;;;;;;;1999.90;999.90;;;;;;;17.78;87.81;98313.34;5047288;28;20045;-65
2021/07/11 03:17:42;;;;;;;1999.90;999.90;;;;;;;17.33;91.11;98313.00;5047718;28;20041;-64
2021/07/11 03:20:11;;;;;;;1999.90;999.90;;;;;;;17.50;91.01;98308.88;5047301;28;20103;-64
2021/07/11 03:22:39;;;;;;;1999.90;999.90;;;;;;;17.54;90.40;98312.53;5041058;28;20049;-64
2021/07/11 03:25:08;;;;;;;1999.90;999.90;;;;;;;18.11;87.41;98314.66;5047346;28;20045;-65
2021/07/11 03:27:36;;;;;;;1999.90;999.90;;;;;;;17.75;88.73;98314.88;5044549;28;20106;-65
2021/07/11 03:30:09;;;;;;;1999.90;999.90;;;;;;;17.64;89.85;98307.50;5048102;28;20048;-64
2021/07/11 03:32:41;;;;;;;1999.90;999.90;;;;;;;18.00;88.03;98308.09;5048958;28;20418;-64
2021/07/11 03:35:10;;;;;;;1999.90;999.90;;;;;;;17.27;91.42;98322.03;5050693;28;20049;-64
2021/07/11 03:37:41;;;;;;;1999.90;999.90;;;;;;;17.62;90.00;98318.25;5051052;28;20053;-64
2021/07/11 03:40:09;;;;;;;;;;;;;;;18.13;88.20;98301.94;5052202;28;20370;-64
2021/07/11 03:42:41;;;;;;;1999.90;999.90;;;;;;;17.73;89.92;98317.25;5050498;28;20167;-64
2021/07/11 03:45:09;;;;;;;;;;;;;;;18.14;88.24;98302.72;5051495;28;20090;-64
2021/07/11 03:47:49;;;;;;;1999.90;999.90;;;;;;;18.36;86.95;98303.03;5051515;28;19986;-65
2021/07/11 03:50:19;;;;;;;1999.90;999.90;;;;;;;18.51;86.81;98312.44;5050943;28;20368;-64
2021/07/11 03:52:54;;;;;;;1999.90;999.90;;;;;;;18.35;86.72;98313.41;5050838;28;20045;-65
2021/07/11 03:55:21;;;;;;;1999.90;999.90;;;;;;;18.38;87.08;98323.03;5039149;28;20115;-64
2021/07/11 03:57:49;;;;;;;1999.90;999.90;;;;;;;19.11;83.99;98319.97;5051271;28;20341;-63
2021/07/11 04:00:18;;;;;;;1999.90;999.90;;;;;;;18.87;84.58;98315.69;5049314;28;20052;-64
2021/07/11 04:02:48;;;;;;;1999.90;999.90;;;;;;;18.35;87.25;98323.81;5050520;28;20045;-64
2021/07/11 04:05:17;;;;;;;1999.90;999.90;;;;;;;17.97;89.98;98317.25;5050913;28;20049;-64
2021/07/11 04:07:44;;;;;;;1999.90;999.90;;;;;;;18.26;89.31;98312.88;5049936;28;20334;-64
2021/07/11 04:10:12;;;;;;;1999.90;999.90;;;;;;;18.12;89.22;98310.69;5051181;28;20549;-65
2021/07/11 04:12:38;;;;;;;1999.90;999.90;;;;;;;18.70;87.29;98305.84;5050729;28;20335;-65
2021/07/11 04:15:06;;;;;;;1999.90;999.90;;;;;;;18.13;91.06;98301.09;5049916;28;20319;-64
2021/07/11 04:17:35;;;;;;;1999.90;999.90;;;;;;;18.73;87.17;98299.50;5050482;28;20090;-64
2021/07/11 04:20:04;;;;;;;1999.90;999.90;;;;;;;18.70;86.73;98289.03;5050889;28;20503;-64
2021/07/11 04:22:31;;;;;;;1999.90;999.90;;;;;;;18.34;89.43;98299.78;5050035;28;20107;-64
2021/07/11 04:25:00;;;;;;;1999.90;999.90;;;;;;;18.68;87.72;98294.25;5048848;28;20434;-64
2021/07/11 04:27:28;;;;;;;1999.90;999.90;;;;;;;19.64;83.70;98297.25;5050563;28;20440;-64
2021/07/11 04:29:55;;;;;;;1999.90;999.90;;;;;;;19.97;81.86;98297.53;5050085;28;20072;-64
2021/07/11 04:32:21;;;;;;;1999.90;999.90;;;;;;;19.27;84.83;98288.91;5050545;28;20416;-64
2021/07/11 04:34:49;;;;;;;1999.90;999.90;;;;;;;18.76;88.00;98293.16;5050768;28;20114;-64
2021/07/11 04:37:16;;;;;;;1999.90;999.90;;;;;;;19.05;86.85;98287.88;5048501;28;20045;-64
2021/07/11 04:39:42;;;;;;;1999.90;999.90;;;;;;;19.23;86.36;98277.66;5048848;28;20044;-64
2021/07/11 04:42:09;;;;;;;1999.90;999.90;;;;;;;19.11;86.25;98280.75;5050963;28;20087;-64
2021/07/11 04:44:36;;;;;;;1999.90;999.90;;;;;;;19.34;85.51;98284.19;5049123;28;20107;-64
2021/07/11 04:47:07;;;;;;;1999.90;999.90;;;;;;;19.30;85.69;98277.72;5049701;28;20056;-64
2021/07/11 04:49:33;;;;;;;1999.90;999.90;;;;;;;19.39;85.32;98274.59;5049274;28;20049;-65
2021/07/11 04:52:02;;;;;;;1999.90;999.90;;;;;;;19.52;86.12;98273.13;5049123;28;20041;-64
2021/07/11 04:54:29;;;;;;;1999.90;999.90;;;;;;;19.38;85.39;98272.97;5049895;28;20049;-64
2021/07/11 04:56:56;;;;;;;1999.90;999.90;;;;;;;19.98;83.58;98273.91;5050046;28;20049;-65
2021/07/11 04:59:22;;;;;;;1999.90;999.90;;;;;;;19.49;85.23;98284.31;5050289;28;20401;-64
2021/07/11 05:01:49;;;;;;;1999.90;999.90;;;;;;;19.46;86.18;98279.47;5046582;28;20381;-64
2021/07/11 05:04:16;;;;;;;1999.90;999.90;;;;;;;19.80;84.16;98279.38;5050326;28;20036;-64
2021/07/11 05:06:43;;;;;;;1999.90;999.90;;;;;;;19.74;83.71;98278.09;5049820;28;20438;-66
2021/07/11 05:09:09;;;;;;;1999.90;999.90;;;;;;;19.73;84.75;98271.69;5047878;28;20381;-64
2021/07/11 05:11:37;;;;;;;1999.90;999.90;;;;;;;18.81;88.42;98267.59;5050296;28;20041;-64
2021/07/11 05:14:04;;;;;;;1999.90;999.90;;;;;;;19.06;88.19;98267.88;5049890;28;20077;-65
2021/07/11 05:16:32;;;;;;;1999.90;999.90;;;;;;;19.64;85.85;98269.22;5042686;28;20052;-65
2021/07/11 05:18:59;;;;;;;1999.90;999.90;;;;;;;19.29;87.56;98273.31;5049686;28;20057;-65
2021/07/11 05:21:26;;;;;;;1999.90;999.90;;;;;;;19.86;85.20;98277.84;5050276;28;20045;-65
2021/07/11 05:23:52;;;;;;;1999.90;999.90;;;;;;;20.23;83.65;98271.22;5048793;28;20041;-65
2021/07/11 05:26:19;;;;;;;1999.90;999.90;;;;;;;20.18;83.64;98275.22;5049616;28;20508;-65
2021/07/11 05:28:46;;;;;;;1999.90;999.90;;;;;;;20.89;82.62;98270.34;5050131;28;20330;-64
2021/07/11 05:31:12;;;;;;;1999.90;999.90;;;;;;;19.74;85.54;98276.09;5049086;28;21096;-63
2021/07/11 05:33:39;;;;;;;1999.90;999.90;;;;;;;20.51;84.22;98272.56;5049571;28;20057;-64
2021/07/11 05:36:08;;;;;;;1999.90;999.90;;;;;;;21.23;80.98;98272.84;5050654;28;20103;-65
2021/07/11 05:38:36;;;;;;;1999.90;999.90;;;;;;;20.55;80.98;98282.63;5049300;28;20044;-65
2021/07/11 05:41:03;;;;;;;1999.90;999.90;;;;;;;19.73;86.27;98284.91;5049549;28;20061;-64
2021/07/11 05:43:30;;;;;;;1999.90;999.90;;;;;;;19.95;85.80;98283.91;5049422;28;20045;-64
2021/07/11 05:45:56;;;;;;;1999.90;999.90;;;;;;;20.95;81.51;98282.00;5049448;28;20335;-66
2021/07/11 05:48:23;;;;;;;1999.90;999.90;;;;;;;20.80;81.04;98281.13;5050007;28;20135;-65
2021/07/11 05:50:51;;;;;;;1999.90;999.90;;;;;;;21.10;81.11;98276.00;5050014;28;20488;-65
2021/07/11 05:53:17;;;;;;;1999.90;999.90;;;;;;;21.65;80.19;98284.56;5047913;28;20076;-64
2021/07/11 05:55:44;;;;;;;1999.90;999.90;;;;;;;21.85;77.06;98279.31;5048673;28;20377;-66
2021/07/11 05:58:11;;;;;;;1999.90;999.90;;;;;;;22.25;75.31;98285.69;5050547;28;20430;-64
2021/07/11 06:00:37;;;;;;;1999.90;999.90;;;;;;;22.39;75.91;98284.84;5049348;28;20049;-64
2021/07/11 06:03:04;;;;;;;1999.90;999.90;;;;;;;21.00;80.82;98276.78;5048279;28;20494;-64
2021/07/11 06:05:30;;;;;;;1999.90;999.90;;;;;;;22.13;77.87;98276.44;5050328;28;20053;-64
2021/07/11 06:07:57;;;;;;;1999.90;999.90;;;;;;;22.19;77.30;98273.22;5048965;28;20098;-64
2021/07/11 06:10:25;;;;;;;1999.90;999.90;;;;;;;22.13;75.33;98276.44;5049746;28;20060;-65
2021/07/11 06:12:51;;;;;;;1999.90;999.90;;;;;;;21.23;79.27;98272.84;5050246;28;20079;-64
2021/07/11 06:15:18;;;;;;;1999.90;999.90;;;;;;;21.55;78.78;98270.06;5048772;28;20504;-64
2021/07/11 06:17:44;;;;;;;1999.90;999.90;;;;;;;22.56;75.70;98281.19;5049264;28;20091;-65
2021/07/11 06:20:11;;;;;;;1999.90;999.90;;;;;;;21.66;78.86;98281.34;5050680;28;20049;-64
2021/07/11 06:22:39;;;;;;;1999.90;999.90;;;;;;;21.33;79.88;98276.84;5047950;28;20057;-65
2021/07/11 06:25:07;;;;;;;1999.90;999.90;;;;;;;21.71;78.63;98283.75;5048699;28;20115;-65
2021/07/11 06:27:40;;;;;;;1999.90;999.90;;;;;;;22.79;75.82;98275.06;5057389;28;20045;-64
2021/07/11 06:30:13;;;;;;;1999.90;999.90;;;;;;;22.34;76.58;98266.38;5048742;28;20496;-65
2021/07/11 06:32:42;;;;;;;1999.90;999.90;;;;;;;22.12;79.04;98272.03;5048401;28;20484;-64
2021/07/11 06:35:11;;;;;;;1999.90;999.90;;;;;;;23.15;75.43;98265.59;5049428;28;20048;-65
2021/07/11 06:37:37;;;;;;;1999.90;999.90;;;;;;;23.09;73.60;98278.50;5049270;28;20053;-64
2021/07/11 06:40:05;;;;;;;1999.90;999.90;;;;;;;21.80;78.55;98274.91;5042191;28;20421;-64
2021/07/11 06:42:32;;;;;;;1999.90;999.90;;;;;;;22.57;77.89;98270.72;5049480;28;20107;-64
2021/07/11 06:44:59;;;;;;;1999.90;999.90;;;;;;;22.49;77.30;98265.13;5049683;28;20522;-65
2021/07/11 06:47:25;;;;;;;1999.90;999.90;;;;;;;23.10;74.25;98275.31;5048769;28;20111;-65
2021/07/11 06:49:52;;;;;;;1999.90;999.90;;;;;;;23.16;74.22;98268.03;5049845;28;20045;-65
2021/07/11 06:52:18;;;;;;;1999.90;999.90;;;;;;;22.99;74.41;98280.19;5049187;28;20081;-65
2021/07/11 06:54:45;;;;;;;1999.90;999.90;;;;;;;22.92;75.34;98271.78;5048127;28;20430;-64
2021/07/11 06:57:11;;;;;;;1999.90;999.90;;;;;;;23.28;73.84;98280.84;5048764;28;20091;-64
2021/07/11 06:59:40;;;;;;;1999.90;999.90;;;;;;;23.72;71.86;98284.16;5048729;28;20084;-65
2021/07/11 07:02:07;;;;;;;1999.90;999.90;;;;;;;24.03;72.46;98285.09;5046349;28;20041;-64
2021/07/11 07:04:33;;;;;;;1999.90;999.90;;;;;;;23.40;73.00;98276.72;5049195;28;20055;-64
2021/07/11 07:07:01;;;;;;;1999.90;999.90;;;;;;;23.96;72.64;98281.56;5051470;28;20049;-64
2021/07/11 07:09:28;;;;;;;1999.90;999.90;;;;;;;24.29;70.39;98284.84;5052492;28;20118;-64
2021/07/11 07:11:54;;;;;;;1999.90;999.90;;;;;;;25.08;68.10;98279.03;5040924;28;20048;-64
2021/07/11 07:14:21;;;;;;;1999.90;999.90;;;;;;;25.63;66.17;98277.03;5053657;28;20045;-64
2021/07/11 07:16:47;;;;;;;1999.90;999.90;;;;;;;26.57;64.79;98272.53;5052097;28;20327;-65
2021/07/11 07:19:14;;;;;;;1999.90;999.90;;;;;;;25.86;65.53;98275.47;5052703;28;20049;-65
2021/07/11 07:21:41;;;;;;;1999.90;999.90;;;;;;;25.91;64.41;98272.13;5053330;28;20499;-64
2021/07/11 07:24:07;;;;;;;1999.90;999.90;;;;;;;25.96;66.01;98268.00;5051790;28;20491;-64
2021/07/11 07:26:34;;;;;;;1999.90;999.90;;;;;;;25.81;66.12;98262.59;5052608;28;20403;-65
2021/07/11 07:29:01;;;;;;;1999.90;999.90;;;;;;;24.68;68.38;98261.00;5053389;28;20048;-65
2021/07/11 07:31:28;;;;;;;1999.90;999.90;;;;;;;24.70;69.58;98265.03;5051714;28;20072;-65
2021/07/11 07:33:55;;;;;;;1999.90;999.90;;;;;;;25.63;67.98;98262.88;5052029;28;20048;-65
2021/07/11 07:36:22;;;;;;;1999.90;999.90;;;;;;;26.09;66.52;98263.34;5053389;28;20048;-66
2021/07/11 07:38:49;;;;;;;1999.90;999.90;;;;;;;26.24;63.53;98263.84;5051605;28;20044;-63
2021/07/11 07:41:16;;;;;;;1999.90;999.90;;;;;;;26.68;64.15;98261.00;5051558;28;20049;-63
2021/07/11 07:43:42;;;;;;;1999.90;999.90;;;;;;;26.45;64.33;98261.84;5051474;28;20049;-63
2021/07/11 07:46:09;;;;;;;1999.90;999.90;;;;;;;26.61;64.38;98266.81;5052159;28;20377;-63
2021/07/11 07:48:36;;;;;;;1999.90;999.90;;;;;;;26.81;61.04;98272.47;5051705;28;20506;-63
2021/07/11 07:51:02;;;;;;;1999.90;999.90;;;;;;;27.01;64.43;98270.41;5052907;28;20045;-63
2021/07/11 07:53:29;;;;;;;1999.90;999.90;;;;;;;27.20;62.16;98270.81;5052167;28;20071;-63
2021/07/11 07:55:56;;;;;;;1999.90;999.90;;;;;;;27.72;59.10;98275.69;5051544;28;20057;-63
2021/07/11 07:58:22;;;;;;;1999.90;999.90;;;;;;;26.74;60.85;98281.94;5046937;28;20045;-63
2021/07/11 08:00:54;;;;;;;1999.90;999.90;;;;;;;27.39;61.57;98280.53;5052335;28;20095;-63
2021/07/11 08:03:21;;;;;;;1999.90;999.90;;;;;;;28.09;58.09;98287.75;5050693;28;20496;-63
2021/07/11 08:05:48;;;;;;;1999.90;999.90;;;;;;;28.84;60.34;98294.66;5051109;28;20049;-63
2021/07/11 08:08:14;;;;;;;1999.90;999.90;;;;;;;28.28;57.52;98293.75;5052271;28;20084;-63
2021/07/11 08:10:41;;;;;;;1999.90;999.90;;;;;;;27.67;59.18;98296.09;5051410;28;20099;-63
2021/07/11 08:13:07;;;;;;;1999.90;999.90;;;;;;;28.05;59.55;98292.75;5051995;28;20432;-65
2021/07/11 08:15:34;;;;;;;1999.90;999.90;;;;;;;28.60;57.15;98292.13;5051947;28;20350;-64
2021/07/11 08:18:05;;;;;;;1999.90;999.90;;;;;;;27.75;60.00;98302.41;5050181;28;20453;-65
2021/07/11 08:20:32;;;;;;;1999.90;999.90;;;;;;;27.44;61.17;98299.91;5051633;28;20226;-65
2021/07/11 08:22:59;;;;;;;1999.90;999.90;;;;;;;27.27;61.46;98290.50;5052052;28;20102;-65
2021/07/11 08:25:27;;;;;;;1999.90;999.90;;;;;;;27.79;58.83;98290.94;5050867;28;20453;-65
2021/07/11 08:27:53;;;;;;;1999.90;999.90;;;;;;;27.53;59.97;98285.88;5051453;28;20122;-65
2021/07/11 08:30:20;;;;;;;1999.90;999.90;;;;;;;29.17;56.65;98290.41;5051450;28;20413;-65
2021/07/11 08:32:46;;;;;;;1999.90;999.90;;;;;;;28.18;58.18;98294.84;5051172;28;20099;-65
2021/07/11 08:35:14;;;;;;;1999.90;999.90;;;;;;;29.17;55.24;98298.16;5051185;28;20067;-65
2021/07/11 08:37:40;;;;;;;1999.90;999.90;;;;;;;28.49;57.31;98289.53;5051766;28;20099;-65
2021/07/11 08:40:10;;;;;;;1999.90;999.90;;;;;;;28.24;59.03;98290.19;5050819;28;20091;-65
2021/07/11 08:42:40;;;;;;;1999.90;999.90;;;;;;;27.10;60.04;98286.06;5051272;28;20076;-64
2021/07/11 08:45:08;;;;;;;1999.90;999.90;;;;;;;28.40;57.56;98292.22;5051035;28;20049;-65
2021/07/11 08:47:37;;;;;;;1999.90;999.90;;;;;;;29.03;56.38;98290.84;5050242;28;20045;-65
2021/07/11 08:50:06;;;;;;;1999.90;999.90;;;;;;;29.54;56.20;98284.41;5051145;28;20349;-65
2021/07/11 08:52:34;;;;;;;1999.90;999.90;;;;;;;28.79;58.45;98276.91;5052003;28;20049;-65
2021/07/11 08:55:09;;;;;;;1999.90;999.90;;;;;;;29.72;54.75;98271.66;5049363;28;20098;-65
2021/07/11 08:57:36;;;;;;;1999.90;999.90;;;;;;;30.31;52.90;98277.78;5050396;28;20048;-66
2021/07/11 09:00:05;;;;;;;1999.90;999.90;;;;;;;30.21;56.25;98260.59;5051673;28;20122;-64
2021/07/11 09:02:32;;;;;;;1999.90;999.90;;;;;;;29.54;55.78;98277.91;5050244;28;20492;-64
2021/07/11 09:04:58;;;;;;;1999.90;999.90;;;;;;;28.38;57.97;98269.94;5050484;28;20041;-64
2021/07/11 09:07:25;;;;;;;1999.90;999.90;;;;;;;29.42;55.43;98268.16;5044002;28;20049;-64
2021/07/11 09:09:56;;;;;;;1999.90;999.90;;;;;;;29.49;55.75;98262.19;5050352;28;20049;-64
2021/07/11 09:12:23;;;;;;;;;;;;;;;29.47;54.36;98256.94;5050828;28;20470;-65
2021/07/11 09:14:58;;;;;;;1999.90;999.90;;;;;;;29.59;55.06;98251.72;5050586;28;19921;-65
2021/07/11 09:17:26;;;;;;;1999.90;999.90;;;;;;;29.69;54.12;98251.34;5051267;28;20072;-65
2021/07/11 09:19:53;;;;;;;1999.90;999.90;;;;;;;28.76;54.40;98252.22;5049922;28;20040;-65
2021/07/11 09:22:25;;;;;;;1999.90;999.90;;;;;;;29.77;52.07;98245.41;5050817;28;20052;-65
2021/07/11 09:24:57;;;;;;;1999.90;999.90;;;;;;;30.94;52.12;98255.13;5083532;28;20106;-65
2021/07/11 09:27:28;;;;;;;1999.90;999.90;;;;;;;31.50;49.84;98250.47;5049783;28;20064;-65
2021/07/11 09:30:00;;;;;;;1999.90;999.90;;;;;;;28.53;57.02;98247.56;5049972;28;20477;-65
2021/07/11 09:32:42;;;;;;;1999.90;999.90;;;;;;;29.97;54.81;98250.88;5051403;28;20052;-65
2021/07/11 09:35:16;;;;;;;1999.90;999.90;;;;;;;29.10;55.64;98267.84;5050121;28;20389;-64
2021/07/11 09:37:45;;;;;;;1999.90;999.90;;;;;;;30.48;54.45;98267.81;5049564;28;20037;-64
2021/07/11 09:40:16;;;;;;;1999.90;999.90;;;;;;;30.65;50.87;98274.13;5050615;28;20045;-66
2021/07/11 09:42:45;;;;;;;1999.90;999.90;;;;;;;30.33;49.54;98278.13;5049766;28;20110;-65
2021/07/11 09:45:17;;;;;;;1999.90;999.90;;;;;;;30.82;47.50;98279.63;5048061;28;20095;-66
2021/07/11 09:47:46;;;;;;;1999.90;999.90;;;;;;;30.65;49.32;98279.03;5042748;28;20056;-65
2021/07/11 09:50:19;;;;;;;1999.90;999.90;;;;;;;30.85;48.54;98285.19;5050256;28;20049;-65
2021/07/11 09:52:47;;;;;;;1999.90;999.90;;;;;;;31.35;46.90;98295.97;5049787;28;20361;-65
2021/07/11 09:55:16;;;;;;;1999.90;999.90;;;;;;;30.89;47.74;98297.28;5064577;28;20080;-66
2021/07/11 09:57:45;;;;;;;1999.90;999.90;;;;;;;29.94;50.75;98295.34;5050561;28;20099;-66
2021/07/11 10:00:21;;;;;;;1999.90;999.90;;;;;;;29.22;52.86;98303.31;5049303;28;20041;-64
2021/07/11 10:02:50;;;;;;;1999.90;999.90;;;;;;;29.32;54.26;98301.38;5049049;28;20108;-65
2021/07/11 10:05:17;;;;;;;1999.90;999.90;;;;;;;29.31;53.81;98312.00;5050238;28;20132;-65
2021/07/11 10:07:45;;;;;;;1999.90;999.90;;;;;;;28.99;55.07;98315.78;5049379;28;20053;-66
2021/07/11 10:10:14;;;;;;;1999.90;999.90;;;;;;;29.34;54.27;98310.25;5049400;28;20053;-65
2021/07/11 10:12:42;;;;;;;1999.90;999.90;;;;;;;29.12;53.87;98308.06;5049882;28;20288;-65
2021/07/11 10:15:12;;;;;;;1999.90;999.90;;;;;;;28.29;57.18;98318.09;5048929;28;20496;-65
2021/07/11 10:17:43;;;;;;;1999.90;999.90;;;;;;;28.22;58.42;98318.28;5048798;28;20198;-65
2021/07/11 10:20:10;;;;;;;;;;;;;;;27.96;60.47;98317.28;5050652;28;20144;-66
2021/07/11 10:22:43;;;;;;;1999.90;999.90;;;;;;;28.36;58.65;98315.06;5050074;28;20599;-65
2021/07/11 10:25:12;;;;;;;1999.90;999.90;;;;;;;29.06;55.55;98321.25;5045699;28;20047;-65
2021/07/11 10:27:39;;;;;;;1999.90;999.90;;;;;;;28.48;56.86;98324.91;5050158;28;20045;-64
2021/07/11 10:30:06;;;;;;;1999.90;999.90;;;;;;;28.29;58.66;98318.91;5049194;28;20461;-65
2021/07/11 10:32:33;;;;;;;1999.90;999.90;;;;;;;28.55;58.53;98318.22;5048463;28;20041;-65
2021/07/11 10:35:15;;;;;;;1999.90;999.90;;;;;;;28.69;58.23;98319.88;5049480;28;20079;-65
2021/07/11 10:37:50;;;;;;;1999.90;999.90;;;;;;;28.89;57.63;98325.41;5050132;28;20057;-65
2021/07/11 10:40:24;;;;;;;1999.90;999.90;;;;;;;28.02;59.91;98327.72;5048352;28;20045;-65
2021/07/11 10:42:51;;;;;;;1999.90;999.90;;;;;;;28.43;59.27;98329.09;5050266;28;20416;-65
2021/07/11 10:45:19;;;;;;;1999.90;999.90;;;;;;;28.54;59.32;98327.97;5054041;28;20426;-65
2021/07/11 10:47:46;;;;;;;1999.90;999.90;;;;;;;28.04;60.09;98325.22;5053768;28;20404;-65
2021/07/11 10:50:25;;;;;;;1999.90;999.90;;;;;;;28.45;58.72;98320.13;5052518;28;20053;-65
2021/07/11 10:52:53;;;;;;;1999.90;999.90;;;;;;;28.60;58.36;98323.41;5050870;28;20087;-65
2021/07/11 10:55:20;;;;;;;1999.90;999.90;;;;;;;27.93;60.01;98328.31;5053211;28;20049;-65
2021/07/11 10:57:46;;;;;;;1999.90;999.90;;;;;;;28.39;59.98;98327.56;5052522;28;20061;-65
2021/07/11 11:00:25;;;;;;;1999.90;999.90;;;;;;;28.57;59.10;98321.41;5053063;28;20102;-65